Time;durP1;ratioP1;P1;durP2;ratioP2;P2;SDS_P1;SDS_P2;PMS_P1;PMS_P2;Temp;Humidity;BMP_temperature;BMP_pressure;BME280_temperature;BME280_humidity;BME280_pressure;Samples;Min_cycle;Max_cycle;Signal;HPM_P1;HPM_P2
2023/08/29 00:00:59;;;;;;;8.20;7.25;;;;;;;12.43;100.00;101081.28;5203516;28;20123;-79
2023/08/29 00:03:33;;;;;;;11.10;7.33;;;;;;;12.45;100.00;101083.00;5221336;28;20025;-79
2023/08/29 00:06:05;;;;;;;8.75;6.38;;;;;;;12.44;100.00;101085.66;5221083;28;20060;-80
2023/08/29 00:08:36;;;;;;;11.20;7.05;;;;;;;12.39;100.00;101083.09;5221519;28;20397;-78
2023/08/29 00:11:08;;;;;;;6.93;6.23;;;;;;;12.38;100.00;101076.13;5221383;28;20034;-80
2023/08/29 00:13:39;;;;;;;6.93;5.80;;;;;;;12.32;100.00;101073.66;5221211;28;20117;-80
2023/08/29 00:16:16;;;;;;;6.80;6.20;;;;;;;12.29;100.00;101077.16;5203772;28;20048;-80
2023/08/29 00:18:47;;;;;;;7.05;6.35;;;;;;;12.22;100.00;101072.94;5221095;28;20058;-80
2023/08/29 00:21:19;;;;;;;7.97;7.17;;;;;;;12.25;100.00;101066.78;5203274;28;20501;-81
2023/08/29 00:23:50;;;;;;;7.63;6.90;;;;;;;12.19;100.00;101065.97;5203648;28;20366;-79
2023/08/29 00:26:21;;;;;;;7.40;6.70;;;;;;;12.19;100.00;101060.75;5221023;28;20026;-80
2023/08/29 00:28:53;;;;;;;9.47;7.27;;;;;;;12.12;100.00;101061.72;5221175;28;20481;-80
2023/08/29 00:31:25;;;;;;;9.00;7.50;;;;;;;12.17;100.00;101053.81;5221149;28;20037;-80
2023/08/29 00:33:56;;;;;;;8.23;7.43;;;;;;;12.11;100.00;101064.38;5220500;28;20052;-80
2023/08/29 00:36:28;;;;;;;9.57;7.00;;;;;;;12.09;100.00;101053.06;5220806;28;20037;-80
2023/08/29 00:38:59;;;;;;;8.97;7.10;;;;;;;12.06;100.00;101054.00;5221068;28;20117;-80
2023/08/29 00:41:30;;;;;;;11.37;7.80;;;;;;;12.03;100.00;101059.25;5221245;28;20482;-80
2023/08/29 00:44:02;;;;;;;8.10;7.30;;;;;;;12.02;100.00;101057.53;5200616;28;20033;-80
2023/08/29 00:46:33;;;;;;;8.63;7.53;;;;;;;11.99;100.00;101053.22;5200155;28;20503;-80
2023/08/29 00:49:06;;;;;;;8.27;7.47;;;;;;;11.94;100.00;101049.78;5199168;28;20042;-79
2023/08/29 00:51:38;;;;;;;8.90;7.90;;;;;;;11.89;100.00;101055.94;5201047;28;20031;-79
2023/08/29 00:54:09;;;;;;;;;;;;;;;11.86;100.00;101052.50;5201695;28;20074;-80
2023/08/29 00:56:42;;;;;;;10.40;7.82;;;;;;;11.89;100.00;101061.16;5200967;28;19964;-79
2023/08/29 00:59:14;;;;;;;;;;;;;;;11.83;100.00;101059.50;5201658;28;20043;-80
2023/08/29 01:01:46;;;;;;;8.30;7.50;;;;;;;11.85;100.00;101055.13;5203651;28;19941;-79
2023/08/29 01:04:19;;;;;;;10.07;8.60;;;;;;;11.81;100.00;101053.44;5204741;28;20034;-80
2023/08/29 01:06:51;;;;;;;10.13;8.50;;;;;;;11.82;100.00;101052.56;5221534;28;20054;-79
2023/08/29 01:09:23;;;;;;;12.00;8.63;;;;;;;11.73;100.00;101047.44;5224978;28;20093;-79
2023/08/29 01:12:16;;;;;;;10.70;7.75;;;;;;;11.72;100.00;101050.94;5225023;28;20029;-79
2023/08/29 01:14:53;;;;;;;;;;;;;;;11.67;100.00;101051.00;5225143;28;20018;-80
2023/08/29 01:17:24;;;;;;;8.48;7.57;;;;;;;11.67;100.00;101046.66;5225075;28;19915;-79
2023/08/29 01:19:56;;;;;;;8.23;7.43;;;;;;;11.64;100.00;101051.91;5224742;28;20540;-79
2023/08/29 01:23:03;;;;;;;9.20;8.32;;;;;;;11.57;100.00;101050.25;5224382;28;20026;-80
2023/08/29 01:25:39;;;;;;;8.52;7.72;;;;;;;11.56;100.00;101048.53;5187452;28;20034;-79
2023/08/29 01:28:12;;;;;;;9.90;8.55;;;;;;;11.56;100.00;101048.53;5224491;28;20025;-79
2023/08/29 01:30:45;;;;;;;9.60;8.55;;;;;;;11.57;100.00;101050.25;5229691;28;20038;-81
2023/08/29 01:33:17;;;;;;;9.98;9.00;;;;;;;11.54;100.00;101063.34;5241534;28;20493;-78
2023/08/29 01:35:48;;;;;;;9.67;8.63;;;;;;;11.52;100.00;101057.28;5239441;28;20033;-79
2023/08/29 01:38:20;;;;;;;10.10;9.13;;;;;;;11.50;100.00;101048.59;5225048;28;20037;-80
2023/08/29 01:40:51;;;;;;;9.80;8.83;;;;;;;11.48;100.00;101051.25;5208240;28;20548;-79
2023/08/29 01:43:23;;;;;;;10.30;9.20;;;;;;;11.38;100.00;101053.97;5224609;28;20030;-80
2023/08/29 01:45:54;;;;;;;11.13;9.23;;;;;;;11.34;100.00;101055.75;5225008;28;20030;-80
2023/08/29 01:48:27;;;;;;;10.20;9.03;;;;;;;11.33;100.00;101056.63;5224402;28;20029;-80
2023/08/29 01:50:58;;;;;;;11.98;9.85;;;;;;;11.35;100.00;101049.66;5223785;28;20030;-79
2023/08/29 01:53:30;;;;;;;10.53;9.50;;;;;;;11.32;100.00;101054.91;5224072;28;20052;-79
2023/08/29 01:56:02;;;;;;;11.93;9.20;;;;;;;11.30;100.00;101059.28;5223368;28;20038;-81
2023/08/29 01:58:35;;;;;;;12.05;9.98;;;;;;;11.31;100.00;101063.63;5224000;28;20065;-80
2023/08/29 02:01:07;;;;;;;10.68;9.50;;;;;;;11.31;100.00;101064.47;5205933;28;20417;-81
2023/08/29 02:03:38;;;;;;;10.50;9.50;;;;;;;11.26;100.00;101068.88;5223165;28;20123;-80
2023/08/29 02:06:11;;;;;;;11.47;8.87;;;;;;;11.24;100.00;101069.81;5205627;28;20050;-80
2023/08/29 02:08:44;;;;;;;11.80;9.85;;;;;;;11.21;100.00;101072.44;5223423;28;20410;-80
2023/08/29 02:11:15;;;;;;;10.40;9.23;;;;;;;11.20;100.00;101066.34;5222430;28;20034;-80
2023/08/29 02:13:47;;;;;;;10.20;9.17;;;;;;;11.13;100.00;101065.53;5205759;28;20056;-80
2023/08/29 02:16:19;;;;;;;11.73;9.20;;;;;;;11.11;100.00;101069.94;5223350;28;20497;-80
2023/08/29 02:18:53;;;;;;;9.10;8.18;;;;;;;11.10;100.00;101069.94;5223225;28;20025;-81
2023/08/29 02:21:25;;;;;;;10.65;8.38;;;;;;;11.06;100.00;101070.84;5223385;28;20026;-79
2023/08/29 02:23:58;;;;;;;10.02;8.70;;;;;;;10.99;100.00;101082.22;5223201;28;20109;-79
2023/08/29 02:26:29;;;;;;;10.48;9.32;;;;;;;10.96;100.00;101083.09;5222677;28;20037;-79
2023/08/29 02:29:00;;;;;;;10.07;9.03;;;;;;;10.94;100.00;101087.47;5223116;28;20378;-79
2023/08/29 02:31:32;;;;;;;14.87;8.30;;;;;;;10.89;100.00;101084.06;5222717;28;20078;-79
2023/08/29 02:34:03;;;;;;;9.27;8.30;;;;;;;10.82;100.00;101096.28;5222282;28;20423;-80
2023/08/29 02:36:35;;;;;;;8.70;7.80;;;;;;;10.86;100.00;101097.13;5205408;28;20052;-80
2023/08/29 02:39:07;;;;;;;9.37;8.20;;;;;;;10.84;100.00;101101.50;5205239;28;20029;-80
2023/08/29 02:41:38;;;;;;;12.10;8.38;;;;;;;10.81;100.00;101104.13;5222974;28;20446;-80
2023/08/29 02:44:10;;;;;;;15.13;8.90;;;;;;;10.79;100.00;101104.16;5222796;28;20168;-79
2023/08/29 02:46:41;;;;;;;9.83;8.93;;;;;;;10.79;100.00;101108.47;5222639;28;20030;-80
2023/08/29 02:49:13;;;;;;;10.30;9.20;;;;;;;10.77;100.00;101113.72;5222629;28;20041;-79
2023/08/29 02:51:44;;;;;;;11.17;9.40;;;;;;;10.70;100.00;101107.66;5222726;28;20041;-78
2023/08/29 02:54:18;;;;;;;11.27;9.00;;;;;;;10.74;100.00;101108.53;5205082;28;20397;-79
2023/08/29 02:56:51;;;;;;;12.43;9.00;;;;;;;10.74;100.00;101101.56;5205329;28;20041;-80
2023/08/29 02:59:22;;;;;;;10.52;8.85;;;;;;;10.68;100.00;101098.16;5222428;28;20121;-80
2023/08/29 03:01:53;;;;;;;10.07;9.17;;;;;;;10.69;100.00;101097.25;5222440;28;20541;-79
2023/08/29 03:04:25;;;;;;;10.27;9.27;;;;;;;10.64;100.00;101107.75;5222049;28;20057;-79
2023/08/29 03:06:56;;;;;;;12.33;9.77;;;;;;;10.63;100.00;101110.38;5222450;28;20112;-79
2023/08/29 03:09:28;;;;;;;9.47;8.47;;;;;;;10.61;100.00;101114.69;5222057;28;20030;-80
2023/08/29 03:12:00;;;;;;;12.48;8.85;;;;;;;10.58;100.00;101116.47;5222226;28;20026;-79
2023/08/29 03:14:31;;;;;;;9.60;8.30;;;;;;;10.61;100.00;101109.50;5222266;28;20119;-79
2023/08/29 03:17:03;;;;;;;10.87;9.23;;;;;;;10.55;100.00;101105.19;5222353;28;20042;-78
2023/08/29 03:19:34;;;;;;;9.90;8.90;;;;;;;10.60;100.00;101107.78;5222482;28;20124;-78
2023/08/29 03:22:06;;;;;;;11.17;9.37;;;;;;;10.62;100.00;101106.88;5188278;28;20034;-78
2023/08/29 03:24:37;;;;;;;10.70;9.10;;;;;;;10.58;100.00;101105.19;5222486;28;20115;-77
2023/08/29 03:27:09;;;;;;;12.90;8.77;;;;;;;10.63;100.00;101103.41;5222591;28;20037;-79
2023/08/29 03:29:40;;;;;;;10.10;9.07;;;;;;;10.63;100.00;101102.53;5204280;28;20036;-78
2023/08/29 03:32:12;;;;;;;10.43;8.97;;;;;;;10.64;100.00;101102.53;5221795;28;20030;-79
2023/08/29 03:34:43;;;;;;;10.63;9.43;;;;;;;10.61;100.00;101106.88;5221421;28;20080;-79
2023/08/29 03:37:14;;;;;;;9.97;8.97;;;;;;;10.60;100.00;101097.34;5221663;28;20444;-78
2023/08/29 03:39:46;;;;;;;11.00;8.87;;;;;;;10.61;100.00;101089.53;5221710;28;20034;-79
2023/08/29 03:42:17;;;;;;;9.37;8.47;;;;;;;10.62;100.00;101092.97;5221752;28;20041;-81
2023/08/29 03:44:49;;;;;;;10.63;8.60;;;;;;;10.58;100.00;101084.31;5221641;28;20087;-77
2023/08/29 03:47:20;;;;;;;14.57;9.00;;;;;;;10.54;100.00;101080.00;5221699;28;20030;-77
2023/08/29 03:49:52;;;;;;;15.00;9.23;;;;;;;10.54;100.00;101073.03;5203687;28;20034;-77
2023/08/29 03:52:26;;;;;;;9.90;8.90;;;;;;;10.51;100.00;101073.09;5221556;28;20030;-77
2023/08/29 03:54:57;;;;;;;9.82;8.82;;;;;;;10.48;100.00;101059.19;5221864;28;20029;-76
2023/08/29 03:57:29;;;;;;;11.57;9.60;;;;;;;10.47;100.00;101060.09;5221563;28;20175;-78
2023/08/29 04:00:06;;;;;;;9.57;8.67;;;;;;;10.40;100.00;101062.75;5187952;28;20068;-79
2023/08/29 04:02:38;;;;;;;10.15;8.50;;;;;;;10.45;100.00;101067.03;5221350;28;20220;-79
2023/08/29 04:05:17;;;;;;;10.40;8.80;;;;;;;10.38;100.00;101069.72;5221406;28;20497;-77
2023/08/29 04:07:49;;;;;;;10.57;8.70;;;;;;;10.29;100.00;101064.53;5221792;28;20101;-78
2023/08/29 04:10:20;;;;;;;9.53;8.53;;;;;;;10.33;100.00;101062.78;5221332;28;20045;-79
2023/08/29 04:12:51;;;;;;;15.50;9.67;;;;;;;10.32;100.00;101050.59;5221475;28;20034;-79
2023/08/29 04:15:24;;;;;;;11.17;8.97;;;;;;;10.28;100.00;101054.13;5221044;28;20121;-80
2023/08/29 04:17:55;;;;;;;12.30;10.40;;;;;;;10.29;100.00;101048.91;5221581;28;20535;-79
2023/08/29 04:20:28;;;;;;;9.73;8.77;;;;;;;10.24;100.00;101048.06;5221604;28;20057;-80
2023/08/29 04:23:02;;;;;;;;;;;;;;;10.22;100.00;101050.69;5222297;28;20034;-79
2023/08/29 04:25:36;;;;;;;13.13;10.93;;;;;;;10.34;100.00;101049.75;5223430;28;19910;-78
2023/08/29 04:28:07;;;;;;;12.32;10.82;;;;;;;10.33;100.00;101049.75;5225199;28;20034;-78
2023/08/29 04:30:38;;;;;;;14.63;11.33;;;;;;;10.32;100.00;101045.38;5226475;28;20042;-79
2023/08/29 04:33:10;;;;;;;14.13;11.70;;;;;;;10.28;100.00;101046.31;5226402;28;20030;-80
2023/08/29 04:35:42;;;;;;;13.83;11.07;;;;;;;10.23;100.00;101044.56;5211065;28;20040;-79
2023/08/29 04:38:13;;;;;;;12.07;10.73;;;;;;;10.20;100.00;101039.38;5229883;28;20049;-79
2023/08/29 04:40:44;;;;;;;12.53;11.27;;;;;;;10.23;100.00;101048.94;5229567;28;20265;-79
2023/08/29 04:43:16;;;;;;;14.77;11.47;;;;;;;10.16;100.00;101042.06;5228495;28;20034;-79
2023/08/29 04:45:49;;;;;;;12.90;11.60;;;;;;;10.17;100.00;101041.16;5228580;28;20053;-79
2023/08/29 04:48:20;;;;;;;13.07;11.73;;;;;;;10.16;100.00;101029.88;5228015;28;20143;-80
2023/08/29 04:50:51;;;;;;;15.03;12.30;;;;;;;10.20;100.00;101031.56;5206749;28;20038;-80
2023/08/29 04:53:23;;;;;;;13.60;12.20;;;;;;;10.18;100.00;101033.34;5205146;28;20129;-80
2023/08/29 04:56:01;;;;;;;14.73;11.87;;;;;;;10.19;100.00;101040.28;5204702;28;20042;-80
2023/08/29 04:58:32;;;;;;;14.35;11.90;;;;;;;10.18;100.00;101045.50;5204499;28;20092;-81
2023/08/29 05:01:04;;;;;;;15.47;13.10;;;;;;;10.17;100.00;101035.94;5186941;28;20042;-80
2023/08/29 05:03:35;;;;;;;17.80;12.20;;;;;;;10.14;100.00;101038.56;5204316;28;20030;-80
2023/08/29 05:06:07;;;;;;;21.70;11.90;;;;;;;10.20;100.00;101044.59;5204853;28;20062;-80
2023/08/29 05:08:38;;;;;;;13.77;11.63;;;;;;;10.27;100.00;101039.34;5205166;28;20034;-80
2023/08/29 05:11:09;;;;;;;26.40;13.80;;;;;;;10.24;100.00;101035.03;5172472;28;20386;-80
2023/08/29 05:13:41;;;;;;;17.60;11.30;;;;;;;10.31;100.00;101041.06;5204363;28;20382;-80
2023/08/29 05:16:12;;;;;;;15.97;11.57;;;;;;;10.34;100.00;101041.09;5204176;28;20038;-80
2023/08/29 05:18:43;;;;;;;13.97;12.00;;;;;;;10.38;100.00;101041.06;5204121;28;20030;-81
2023/08/29 05:21:15;;;;;;;17.07;12.87;;;;;;;10.41;100.00;101037.53;5204779;28;20038;-80
2023/08/29 05:23:47;;;;;;;14.63;11.90;;;;;;;10.44;100.00;101039.25;5204769;28;20030;-80
2023/08/29 05:26:18;;;;;;;12.18;10.98;;;;;;;10.49;100.00;101040.09;5204811;28;20022;-80
2023/08/29 05:28:50;;;;;;;14.90;12.20;;;;;;;10.64;100.00;101033.88;5204568;28;20066;-79
2023/08/29 05:31:22;;;;;;;13.23;11.82;;;;;;;10.71;100.00;101045.97;5204415;28;20109;-80
2023/08/29 05:33:53;;;;;;;16.17;12.13;;;;;;;10.77;100.00;101044.19;5204076;28;20031;-80
2023/08/29 05:36:24;;;;;;;16.93;13.47;;;;;;;10.81;100.00;101045.00;5204180;28;20132;-80
2023/08/29 05:38:56;;;;;;;17.00;12.93;;;;;;;10.83;100.00;101048.47;5186409;28;20050;-80
2023/08/29 05:41:31;;;;;;;18.13;12.97;;;;;;;10.87;100.00;101037.13;5203849;28;20173;-81
2023/08/29 05:44:03;;;;;;;15.82;12.93;;;;;;;10.90;100.00;101037.09;5186215;28;20026;-80
2023/08/29 05:46:34;;;;;;;17.50;13.27;;;;;;;10.97;100.00;101048.34;5203186;28;20182;-80
2023/08/29 05:49:05;;;;;;;14.87;13.07;;;;;;;11.06;100.00;101044.75;5203545;28;20096;-81
2023/08/29 05:51:37;;;;;;;17.63;13.77;;;;;;;11.13;100.00;101047.28;5203548;28;20045;-80
2023/08/29 05:54:09;;;;;;;14.63;12.90;;;;;;;11.21;100.00;101039.38;5203116;28;20038;-81
2023/08/29 05:56:41;;;;;;;14.23;12.80;;;;;;;11.27;100.00;101044.53;5203331;28;20077;-79
2023/08/29 05:59:12;;;;;;;14.17;12.63;;;;;;;11.37;100.00;101050.50;5203305;28;20030;-79
2023/08/29 06:01:44;;;;;;;15.00;13.30;;;;;;;11.37;100.00;101052.25;5204570;28;20038;-82
2023/08/29 06:04:18;;;;;;;19.23;14.00;;;;;;;11.40;100.00;101055.69;5190369;28;20394;-79
2023/08/29 06:06:52;;;;;;;17.58;14.63;;;;;;;11.42;100.00;101059.13;5207682;28;20069;-80
2023/08/29 06:09:24;;;;;;;14.82;13.32;;;;;;;11.49;100.00;101052.97;5188584;28;20460;-79
2023/08/29 06:11:55;;;;;;;18.03;13.40;;;;;;;11.64;100.00;101051.91;5187903;28;20129;-79
2023/08/29 06:14:26;;;;;;;15.50;13.93;;;;;;;11.70;100.00;101048.34;5205417;28;20034;-80
2023/08/29 06:16:58;;;;;;;16.40;13.77;;;;;;;11.78;100.00;101045.63;5188448;28;20038;-81
2023/08/29 06:19:30;;;;;;;16.93;14.00;;;;;;;11.94;100.00;101047.16;5206300;28;20026;-81
2023/08/29 06:22:01;;;;;;;15.07;13.47;;;;;;;11.99;100.00;101045.38;5209964;28;20073;-81
2023/08/29 06:24:33;;;;;;;15.83;13.30;;;;;;;12.14;100.00;101052.13;5210324;28;20027;-80
2023/08/29 06:27:05;;;;;;;14.20;12.70;;;;;;;12.24;100.00;101050.22;5209511;28;20023;-79
2023/08/29 06:29:39;;;;;;;14.27;12.93;;;;;;;12.31;100.00;101044.00;5189095;28;20099;-80
2023/08/29 06:32:11;;;;;;;13.60;12.30;;;;;;;12.47;100.00;101044.63;5205802;28;20041;-80
2023/08/29 06:34:43;;;;;;;14.80;13.30;;;;;;;12.54;100.00;101054.13;5204450;28;20030;-80
2023/08/29 06:37:16;;;;;;;13.67;12.33;;;;;;;12.63;100.00;101049.63;5205282;28;20030;-81
2023/08/29 06:39:51;;;;;;;;;;;;;;;12.85;100.00;101050.97;5204874;28;20432;-80
2023/08/29 06:42:25;;;;;;;13.85;12.20;;;;;;;12.83;100.00;101049.25;5204495;28;20380;-81
2023/08/29 06:44:58;;;;;;;14.35;12.13;;;;;;;12.83;100.00;101055.38;5204819;28;20031;-80
2023/08/29 06:47:29;;;;;;;;;;;;;;;13.07;100.00;101051.44;5187691;28;20509;-81
2023/08/29 06:50:01;;;;;;;13.68;12.15;;;;;;;12.99;100.00;101049.84;5204533;28;19961;-80
2023/08/29 06:52:32;;;;;;;15.13;11.73;;;;;;;13.11;100.00;101047.84;5203082;28;20052;-81
2023/08/29 06:55:04;;;;;;;13.03;11.73;;;;;;;13.26;100.00;101048.44;5170127;28;20033;-80
2023/08/29 06:57:35;;;;;;;11.77;10.57;;;;;;;13.49;100.00;101046.28;5203332;28;20038;-81
2023/08/29 07:00:10;;;;;;;13.87;11.57;;;;;;;13.59;100.00;101046.09;5204162;28;20038;-81
2023/08/29 07:02:42;;;;;;;11.63;10.45;;;;;;;13.73;100.00;101048.38;5203476;28;20038;-80
2023/08/29 07:05:13;;;;;;;11.43;10.30;;;;;;;13.77;100.00;101053.53;5169880;28;20463;-81
2023/08/29 07:07:45;;;;;;;11.43;9.93;;;;;;;13.80;100.00;101056.09;5204320;28;20066;-80
2023/08/29 07:10:17;;;;;;;10.97;9.97;;;;;;;13.96;100.00;101054.00;5186593;28;20042;-81
2023/08/29 07:12:49;;;;;;;10.93;9.83;;;;;;;13.96;100.00;101053.09;5202510;28;20077;-81
2023/08/29 07:15:23;;;;;;;11.25;9.23;;;;;;;14.10;100.00;101058.91;5203281;28;20417;-81
2023/08/29 07:17:54;;;;;;;9.85;8.85;;;;;;;14.18;100.00;101059.63;5203113;28;20030;-81
2023/08/29 07:20:26;;;;;;;13.87;9.57;;;;;;;14.35;100.00;101063.59;5202763;28;20451;-81
2023/08/29 07:22:57;;;;;;;11.37;9.20;;;;;;;14.44;100.00;101055.50;5202557;28;20034;-80
2023/08/29 07:25:42;;;;;;;12.60;9.53;;;;;;;14.65;100.00;101061.13;5203679;28;20041;-81
2023/08/29 07:28:14;;;;;;;10.70;9.60;;;;;;;14.65;100.00;101064.63;5202878;28;20022;-80
2023/08/29 07:30:47;;;;;;;10.63;9.53;;;;;;;14.76;100.00;101065.22;5203628;28;20437;-81
2023/08/29 07:33:19;;;;;;;10.18;9.13;;;;;;;14.90;100.00;101069.25;5203290;28;20101;-80
2023/08/29 07:35:51;;;;;;;10.18;8.27;;;;;;;14.89;100.00;101068.38;5202970;28;20030;-80
2023/08/29 07:38:23;;;;;;;10.27;8.73;;;;;;;14.94;100.00;101068.25;5202043;28;20430;-81
2023/08/29 07:40:56;;;;;;;9.25;8.15;;;;;;;15.08;100.00;101074.00;5201679;28;20505;-81
2023/08/29 07:43:28;;;;;;;10.98;9.20;;;;;;;15.10;100.00;101072.22;5202451;28;20438;-82
2023/08/29 07:45:59;;;;;;;14.30;8.90;;;;;;;15.25;100.00;101077.94;5184964;28;20126;-81
2023/08/29 07:48:31;;;;;;;10.60;7.67;;;;;;;15.26;100.00;101074.38;5202097;28;20043;-81
2023/08/29 07:51:03;;;;;;;8.93;8.02;;;;;;;15.27;100.00;101068.25;5202124;28;20394;-81
2023/08/29 07:53:35;;;;;;;10.93;8.35;;;;;;;15.52;100.00;101078.94;5202140;28;20026;-82
2023/08/29 07:56:06;;;;;;;8.70;7.90;;;;;;;15.88;100.00;101077.94;5201754;28;20029;-81
2023/08/29 07:58:37;;;;;;;9.07;7.67;;;;;;;15.94;100.00;101080.34;5203035;28;20485;-83
2023/08/29 08:01:09;;;;;;;9.03;7.67;;;;;;;16.05;100.00;101067.72;5202705;28;20042;-80
2023/08/29 08:03:40;;;;;;;8.73;6.67;;;;;;;16.10;100.00;101067.59;5185047;28;20121;-80
2023/08/29 08:06:12;;;;;;;11.10;7.63;;;;;;;16.20;100.00;101069.03;5184288;28;20038;-81
2023/08/29 08:08:43;;;;;;;11.63;7.10;;;;;;;16.27;100.00;101072.34;5202571;28;20037;-81
2023/08/29 08:11:14;;;;;;;16.90;7.27;;;;;;;16.33;100.00;101075.63;5202273;28;20039;-82
2023/08/29 08:13:46;;;;;;;10.40;7.73;;;;;;;16.37;100.00;101084.28;5202066;28;20118;-82
2023/08/29 08:16:17;;;;;;;10.63;7.40;;;;;;;16.37;100.00;101073.75;5184618;28;20073;-81
2023/08/29 08:18:48;;;;;;;8.53;7.63;;;;;;;16.65;100.00;101075.50;5201785;28;20030;-82
2023/08/29 08:21:21;;;;;;;8.47;6.07;;;;;;;16.92;98.60;101081.59;5201713;28;20046;-82
2023/08/29 08:23:52;;;;;;;7.05;6.07;;;;;;;16.99;98.37;101074.38;5184446;28;20034;-82
2023/08/29 08:26:23;;;;;;;7.17;5.70;;;;;;;17.08;97.14;101081.91;5202170;28;20026;-82
2023/08/29 08:28:55;;;;;;;6.07;5.47;;;;;;;17.14;92.60;101081.72;5202735;28;20042;-81
2023/08/29 08:31:26;;;;;;;7.63;5.93;;;;;;;17.43;92.75;101080.66;5203375;28;20089;-82
2023/08/29 08:33:58;;;;;;;7.72;5.90;;;;;;;17.57;94.92;101074.03;5202741;28;20034;-81
2023/08/29 08:36:30;;;;;;;6.07;4.47;;;;;;;17.96;90.40;101078.72;5201822;28;20498;-81
2023/08/29 08:39:03;;;;;;;4.88;4.30;;;;;;;17.80;86.35;101084.56;5200932;28;20045;-81
2023/08/29 08:41:37;;;;;;;6.85;4.15;;;;;;;18.14;84.81;101079.78;5201188;28;20027;-82
2023/08/29 08:44:11;;;;;;;11.48;4.32;;;;;;;18.24;83.31;101086.44;5201426;28;20025;-82
2023/08/29 08:46:44;;;;;;;5.80;4.18;;;;;;;18.34;81.71;101081.63;5201646;28;20034;-81
2023/08/29 08:49:15;;;;;;;8.45;4.95;;;;;;;18.07;82.94;101088.88;5203187;28;20501;-83
2023/08/29 08:51:48;;;;;;;5.68;4.57;;;;;;;18.25;85.96;101074.09;5202019;28;20034;-83
2023/08/29 08:54:20;;;;;;;6.75;4.45;;;;;;;18.51;83.90;101080.94;5201544;28;20042;-82
2023/08/29 08:56:52;;;;;;;6.93;3.77;;;;;;;18.48;83.19;101083.69;5183880;28;20031;-82
2023/08/29 08:59:26;;;;;;;5.10;3.42;;;;;;;18.68;81.29;101078.44;5200904;28;20029;-82
2023/08/29 09:01:58;;;;;;;5.85;3.22;;;;;;;18.65;82.82;101073.28;5201017;28;20505;-82
2023/08/29 09:04:29;;;;;;;5.03;3.40;;;;;;;18.68;83.66;101073.16;5200448;28;20030;-82
2023/08/29 09:07:01;;;;;;;4.90;3.43;;;;;;;18.73;81.10;101071.19;5200450;28;20119;-82
2023/08/29 09:09:32;;;;;;;3.33;3.00;;;;;;;18.75;79.33;101073.75;5200569;28;20050;-82
2023/08/29 09:12:04;;;;;;;4.10;2.90;;;;;;;18.62;78.29;101078.69;5200899;28;20394;-82
2023/08/29 09:14:35;;;;;;;6.20;3.03;;;;;;;18.57;81.10;101076.25;5200609;28;20165;-82
2023/08/29 09:17:08;;;;;;;4.97;2.80;;;;;;;18.37;79.72;101082.38;5200641;28;20390;-82
2023/08/29 09:19:39;;;;;;;;;;;;;;;19.03;83.55;101076.13;5201016;28;20474;-82
2023/08/29 09:22:10;;;;;;;4.75;3.08;;;;;;;19.26;82.37;101075.09;5203246;28;19910;-82
2023/08/29 09:24:42;;;;;;;3.73;2.97;;;;;;;19.80;79.23;101080.63;5204062;28;20038;-82
2023/08/29 09:27:13;;;;;;;5.00;2.80;;;;;;;20.15;76.15;101085.16;5204078;28;20026;-83
2023/08/29 09:29:45;;;;;;;4.55;2.85;;;;;;;19.68;72.06;101081.16;5204908;28;20196;-83
2023/08/29 09:32:16;;;;;;;4.57;2.80;;;;;;;19.64;73.29;101093.66;5171344;28;20034;-84
2023/08/29 09:34:48;;;;;;;3.47;2.47;;;;;;;19.90;71.98;101083.69;5204190;28;20102;-82
2023/08/29 09:37:19;;;;;;;4.33;2.50;;;;;;;20.40;71.95;101082.19;5204758;28;20042;-82
2023/08/29 09:39:53;;;;;;;3.80;2.63;;;;;;;20.36;66.48;101086.75;5187665;28;20026;-82
2023/08/29 09:42:25;;;;;;;4.15;2.55;;;;;;;20.23;70.39;101081.19;5205434;28;20038;-83
2023/08/29 09:44:56;;;;;;;2.63;2.13;;;;;;;20.23;71.51;101080.34;5205468;28;20038;-82
2023/08/29 09:47:28;;;;;;;3.73;2.30;;;;;;;19.92;69.85;101081.81;5205282;28;20031;-81
2023/08/29 09:50:00;;;;;;;4.38;1.90;;;;;;;19.67;71.68;101076.78;5204777;28;20113;-82
2023/08/29 09:52:31;;;;;;;5.53;1.50;;;;;;;19.56;69.09;101073.78;5186913;28;20141;-82
2023/08/29 09:55:04;;;;;;;3.50;1.40;;;;;;;19.37;70.36;101068.47;5205538;28;20061;-82
2023/08/29 09:57:37;;;;;;;5.15;1.90;;;;;;;19.21;71.21;101071.81;5210234;28;20034;-83
2023/08/29 10:00:10;;;;;;;;;;;;;;;19.62;73.20;101062.91;5212766;28;20421;-83
2023/08/29 10:02:44;;;;;;;3.30;2.25;;;;;;;19.12;71.61;101061.63;5203699;28;19909;-81
2023/08/29 10:05:21;;;;;;;2.72;1.85;;;;;;;19.26;75.38;101061.03;5203511;28;20038;-83
2023/08/29 10:07:57;;;;;;;3.30;1.98;;;;;;;19.92;72.68;101065.09;5203610;28;20077;-83
2023/08/29 10:10:28;;;;;;;2.60;1.58;;;;;;;20.15;71.22;101058.69;5203281;28;20089;-82
2023/08/29 10:13:02;;;;;;;3.03;1.80;;;;;;;20.19;67.65;101065.56;5203794;28;20042;-81
2023/08/29 10:15:35;;;;;;;2.97;2.22;;;;;;;19.99;69.74;101070.00;5203337;28;20553;-82
2023/08/29 10:18:07;;;;;;;4.20;2.00;;;;;;;20.36;69.58;101065.56;5203180;28;20042;-82
2023/08/29 10:20:43;;;;;;;4.07;2.05;;;;;;;20.88;67.51;101066.56;5203225;28;20065;-82
2023/08/29 10:23:16;;;;;;;2.97;2.00;;;;;;;20.45;66.20;101058.09;5204001;28;20030;-82
2023/08/29 10:25:48;;;;;;;3.42;2.10;;;;;;;19.83;64.71;101054.00;5204358;28;20070;-81
2023/08/29 10:28:21;;;;;;;4.68;1.27;;;;;;;19.84;62.44;101060.16;5203610;28;20478;-82
2023/08/29 10:30:55;;;;;;;2.47;1.25;;;;;;;20.19;65.49;101053.19;5170082;28;20035;-83
2023/08/29 10:33:26;;;;;;;3.45;1.80;;;;;;;20.48;65.22;101058.84;5201572;28;20026;-83
2023/08/29 10:36:01;;;;;;;3.20;2.00;;;;;;;20.63;66.53;101049.25;5202779;28;20041;-83
2023/08/29 10:38:38;;;;;;;4.10;1.92;;;;;;;20.34;64.13;101051.56;5203829;28;20034;-83
2023/08/29 10:41:11;;;;;;;3.45;2.10;;;;;;;20.34;62.69;101050.72;5202816;28;20072;-83
2023/08/29 10:43:42;;;;;;;3.78;1.85;;;;;;;20.30;64.45;101054.44;5203447;28;20037;-83
2023/08/29 10:46:14;;;;;;;2.20;1.63;;;;;;;20.45;66.59;101052.81;5185904;28;20470;-83
2023/08/29 10:48:46;;;;;;;4.05;2.38;;;;;;;20.48;63.56;101047.38;5202920;28;20589;-83
2023/08/29 10:51:23;;;;;;;3.03;2.07;;;;;;;20.53;62.97;101046.22;5203584;28;20042;-83
2023/08/29 10:54:05;;;;;;;4.53;1.50;;;;;;;20.92;63.58;101041.63;5202753;28;20026;-82
2023/08/29 10:56:42;;;;;;;3.95;1.50;;;;;;;21.28;62.80;101045.91;5202758;28;20532;-81
2023/08/29 10:59:35;;;;;;;2.80;1.52;;;;;;;21.56;61.46;101034.72;5202245;28;20030;-82
2023/08/29 11:02:26;;;;;;;;;;;;;;;22.12;59.17;101029.81;5202828;28;20120;-82
2023/08/29 11:05:03;;;;;;;3.00;1.33;;;;;;;22.32;61.36;101030.50;5201913;28;19992;-83
2023/08/29 11:07:34;;;;;;;5.53;2.22;;;;;;;24.01;53.24;101022.75;5201889;28;20072;-82
2023/08/29 11:10:20;;;;;;;3.03;1.60;;;;;;;25.93;53.30;101028.22;5202572;28;20034;-82
2023/08/29 11:13:21;;;;;;;4.82;1.75;;;;;;;27.09;49.66;101023.00;5203591;28;20493;-82
2023/08/29 11:15:52;;;;;;;2.67;1.55;;;;;;;25.74;46.36;101013.53;5177644;28;20046;-82
2023/08/29 11:18:24;;;;;;;1.80;1.57;;;;;;;25.98;46.30;101020.75;5202735;28;20518;-82
2023/08/29 11:20:55;;;;;;;2.83;1.80;;;;;;;26.14;46.28;101013.28;5202403;28;20034;-83
2023/08/29 11:23:31;;;;;;;3.45;1.42;;;;;;;26.41;42.71;101009.50;5202428;28;20038;-82
2023/08/29 11:26:03;;;;;;;3.58;2.20;;;;;;;26.32;42.44;101008.41;5202153;28;20030;-83
2023/08/29 11:28:42;;;;;;;3.47;1.55;;;;;;;27.56;42.52;101006.81;5201955;28;20030;-82
2023/08/29 11:31:18;;;;;;;3.85;2.22;;;;;;;27.78;38.74;101006.75;5201914;28;20030;-81
2023/08/29 11:33:50;;;;;;;3.35;1.90;;;;;;;27.40;42.54;100996.50;5185038;28;20050;-83
2023/08/29 11:36:21;;;;;;;2.30;2.03;;;;;;;28.72;40.12;101001.63;5202166;28;20034;-83
2023/08/29 11:38:52;;;;;;;;;;;;;;;30.22;37.11;100999.09;5202357;28;20035;-82
2023/08/29 11:41:28;;;;;;;2.42;1.70;;;;;;;28.04;37.70;101000.28;5201236;28;19937;-82